Hlavní strana
METAR-TAF:

METAR-TAF

Letiště :

Vršac, Srbsko

zeměpisná šířka: 45-09N, zeměpisná délka: 021-19E, výška: 83 m

Aktuální stav počasí

Zpráva byla vytvořena před 29 minutami, v 00:00 UTC
Jihovýchodní vítr 22 kt s nárazy do 32 kt
Teplota 12°C
Vlhkost vzduchu 54%
Tlak 1025 hPa
Viditelnost 10 km a více
Žádná oblačnost pod 1500 m, nevyskytují se cumulonimby.

METAR: LYVR 200000Z 14022G32KT CAVOK 12/03 Q1025 NOSIG

Čas: 02:29 (00:29 UTC)

Předpověď počasí

Zpráva byla vytvořena před 1 hodinou a 29 minutami, v 23:00 UTC
Předpověď platná od 20 v 00 UTC do 20 v 24 UTC
Severoseverovýchodní vítr 8 kt
Viditelnost 10 km a více
Žádná oblačnost pod 1500 m, nevyskytují se cumulonimby.

TAF: LYVR 192300Z 2000/2024 03008KT CAVOK TX21/2013Z TN06/2004Z

Stav a předpovědi počasí z více než 4 000 letišť (zprávy METAR a TAF).

Červené a žluté tečky na mapě představují dostupné meteorologické stanice.

Když kurzor umístíte na tečku, zobrazí se název stanice.

Pak kliknutím zobrazíte stav a předpověď počasí.

Chcete-li změnit mapu, kliknutím na zelené tlačítko se znaménkem +mapu přiblížíte, kliknutím na zelené tlačítko se znaménkem – mapu oddálíte a kliknutím na zelené šipky přejdete na sousední mapy.


METAR-TAF: